KFET/FET METAR and TAF weather

Enter ICAO airport designator
Station Type Date Time Source
KFET METAR 2019/05/25 15:15 UTC NOAA

KFET 251515Z AUTO 33003KT 10SM CLR 20/10 A2997 RMK AO2 T01990100


Station Type Date Time Source
KFET Decoded METAR 2019/05/25 15:15 UTC NOAA

Fremont Municipal Airport, NE, United States (KFET) 41-27N 096-31W
May 25, 2019 - 11:15 AM EDT / 2019.05.25 1515 UTC
Wind: from the NNW (330 degrees) at 3 MPH (3 KT):0
Visibility: 10 mile(s):0
Sky conditions: clear
Temperature: 67.8 F (19.9 C)
Dew Point: 50.0 F (10.0 C)
Relative Humidity: 52%
Pressure (altimeter): 29.97 in. Hg (1014 hPa)
ob: KFET 251515Z AUTO 33003KT 10SM CLR 20/10 A2997 RMK AO2 T01990100
cycle: 15

Station Type Date Time Source
KFET TAF UTC NOAA

Error!

Example: see airport list